METAR

ENBN 272050Z 12008KT 100V170 CAVOK 08/04 Q0991

ENMS 272050Z 18004KT CAVOK M02/M02 Q0992 RMK WIND 412FT 00000KT

ENNM 272050Z 06013KT CAVOK 02/01 Q0991

ENOL 272050Z 10006KT CAVOK 06/04 Q0990 NOSIG

ENST 271950Z 09004KT CAVOK 06/01 Q0991 RMK WIND 300FT VRB05KT

ENVA 272050Z VRB02KT CAVOK 06/02 Q0990 RMK WIND 670FT 17010KT



TAF

TAF ENVA 271700Z 2718/2818 09005KT CAVOK TEMPO 2812/2818 RA PROB40 2815/2818 23012KT